Sensho — JG5609 — position and weather

sailwx.info

Track history (hours):
 
Tides and Currents Weather Stations Pressure Air Temp Water Temp Dewpoint Dewpoint Depression Visibility Wind Speed Wind Dir Waves Ship Positions

Sensho

Last reported at 2018-Jul-18 22:00 UTC. Time now 2018-Jul-18 22:08 UTC.
Position N 34°35' E 134°54'.

Length 81 m; draft 4 m.

Type: Cargo ship. MMSI: 431100886.

Date/timePositionNaut miles runAvg speedWind from/ knotsBaromVisibWave heightAir tempDewpointWater temp
2018-Jul-18 22:00N 34°35' E 134°54'815.7
2018-Jul-18 21:30N 34°31' E 134°45'814.3
2018-Jul-18 20:58N 34°28' E 134°37'714.3
2018-Jul-18 20:29N 34°26' E 134°29'13 0.4
2018-Jul-17 12:10N 34°24' E 134°14'315.4
2018-Jul-17 11:57N 34°24' E 134°17'614.4
2018-Jul-17 11:30N 34°26' E 134°25'714.0
2018-Jul-17 11:00N 34°29' E 134°33'713.6
2018-Jul-17 10:30N 34°31' E 134°41'1812.8
2018-Jul-17 09:06N 34°37' E 135°01'1 9.8
2018-Jul-17 09:00N 34°37' E 135°02'510.1
2018-Jul-17 08:30N 34°36' E 135°08'713.5
2018-Jul-17 08:01N 34°36' E 135°16'713.4
2018-Jul-17 07:30N 34°36' E 135°24'3 5.1
2018-Jul-17 06:58N 34°34' E 135°27'0 0.0
2018-Jul-17 06:26N 34°34' E 135°27'0 0.0
2018-Jul-17 05:50N 34°34' E 135°27'0 0.0
2018-Jul-17 05:14N 34°34' E 135°27'0 0.0
2018-Jul-17 02:50N 34°34' E 135°27'0 0.0
2018-Jul-17 02:29N 34°34' E 135°27'0 0.0
2018-Jul-17 01:59N 34°34' E 135°27'0 0.0
2018-Jul-17 01:17N 34°34' E 135°27'0 0.0
2018-Jul-17 00:59N 34°34' E 135°27'0 0.0
2018-Jul-17 00:29N 34°34' E 135°27'1 0.7
2018-Jul-16 23:28N 34°35' E 135°27'511.2
2018-Jul-16 22:59N 34°36' E 135°20'613.1
2018-Jul-16 22:30N 34°35' E 135°13'714.7
2018-Jul-16 22:00N 34°35' E 135°04'713.3
2018-Jul-16 21:28N 34°35' E 134°55'714.6
2018-Jul-16 21:00N 34°32' E 134°48'714.1
2018-Jul-16 20:29N 34°29' E 134°40'714.2
2018-Jul-16 19:58N 34°26' E 134°32'1 2.4
2018-Jul-16 19:30N 34°25' E 134°31'29 0.9
2018-Jul-15 09:36N 34°25' E 133°56'315.2
2018-Jul-15 09:23N 34°25' E 133°60'1113.2
2018-Jul-15 08:35N 34°25' E 134°13'413.1
2018-Jul-15 08:17N 34°25' E 134°17'413.7
2018-Jul-15 08:00N 34°26' E 134°22'713.9
2018-Jul-15 07:30N 34°28' E 134°30'713.6
2018-Jul-15 07:00N 34°31' E 134°37'713.5
2018-Jul-15 06:29N 34°33' E 134°45'911.9
2018-Jul-15 05:42N 34°37' E 134°56'310.5
2018-Jul-15 05:24N 34°37' E 134°59'4 9.6
2018-Jul-15 05:01N 34°36' E 135°04'612.7
2018-Jul-15 04:30N 34°36' E 135°11'714.1
2018-Jul-15 04:00N 34°37' E 135°20'612.1
2018-Jul-15 03:30N 34°35' E 135°27'0 0.3
2018-Jul-15 03:00N 34°34' E 135°27'0 0.0
2018-Jul-15 02:30N 34°34' E 135°27'0 0.0
2018-Jul-15 00:39N 34°34' E 135°27'0 0.0
2018-Jul-15 00:27N 34°34' E 135°27'0 0.0
2018-Jul-14 23:57N 34°34' E 135°27'0 0.0
2018-Jul-14 23:21N 34°34' E 135°27'0 0.0
2018-Jul-14 22:51N 34°34' E 135°27'0 0.0
2018-Jul-14 08:15N 34°34' E 135°27'0 0.0
2018-Jul-14 07:51N 34°34' E 135°27'0 0.0
2018-Jul-14 07:27N 34°34' E 135°27'0 0.0
2018-Jul-14 06:45N 34°34' E 135°27'0 0.0
2018-Jul-14 06:21N 34°34' E 135°27'0 0.0
2018-Jul-14 01:09N 34°34' E 135°27'0 0.0
2018-Jul-13 23:45N 34°34' E 135°27'0 0.0
2018-Jul-13 23:15N 34°34' E 135°27'0 0.0
2018-Jul-13 22:45N 34°34' E 135°27'0 0.0
2018-Jul-13 22:15N 34°34' E 135°27'0 0.0
2018-Jul-13 17:33N 34°34' E 135°27'0 0.0
2018-Jul-13 17:15N 34°34' E 135°27'0 0.0
2018-Jul-13 16:51N 34°34' E 135°27'0 0.0
2018-Jul-13 16:15N 34°34' E 135°27'0 0.0
2018-Jul-13 15:57N 34°34' E 135°27'0 0.0
2018-Jul-13 15:15N 34°34' E 135°27'0 0.0
2018-Jul-13 11:51N 34°34' E 135°27'0 0.0
2018-Jul-13 09:09N 34°34' E 135°27'0 0.0
2018-Jul-13 08:39N 34°34' E 135°27'0 0.0
2018-Jul-13 08:27N 34°34' E 135°27'0 0.0
2018-Jul-13 07:39N 34°34' E 135°27'0 0.0
2018-Jul-13 07:09N 34°34' E 135°27'0 0.0
2018-Jul-13 06:51N 34°34' E 135°27'0 0.0
2018-Jul-13 06:27N 34°34' E 135°27'4 8.7
2018-Jul-13 06:01N 34°36' E 135°23'713.8
2018-Jul-13 05:30N 34°35' E 135°15'714.6
2018-Jul-13 05:01N 34°34' E 135°06'916.3
2018-Jul-13 04:26N 34°35' E 134°55'716.5
2018-Jul-13 04:00N 34°32' E 134°47'1114.5
2018-Jul-13 03:17N 34°29' E 134°35'414.3
2018-Jul-13 03:00N 34°27' E 134°31'10 0.3
2018-Jul-11 14:20N 34°25' E 134°19'514.3
2018-Jul-11 13:58N 34°27' E 134°25'714.6
2018-Jul-11 13:30N 34°30' E 134°33'714.5
2018-Jul-11 13:01N 34°32' E 134°41'915.9
2018-Jul-11 12:26N 34°35' E 134°51'715.9
2018-Jul-11 12:00N 34°38' E 134°59'714.7
2018-Jul-11 11:30N 34°36' E 135°08'714.5
2018-Jul-11 11:00N 34°36' E 135°17'713.6
2018-Jul-11 10:30N 34°36' E 135°25'2 4.3
2018-Jul-11 10:00N 34°34' E 135°27'0 0.0
2018-Jul-11 09:22N 34°34' E 135°27'0 0.0
2018-Jul-11 05:10N 34°34' E 135°27'0 0.0
2018-Jul-11 04:45N 34°34' E 135°27'0 0.0
2018-Jul-11 03:16N 34°34' E 135°27'0 0.1
2018-Jul-11 03:00N 34°34' E 135°27'510.7
2018-Jul-11 02:30N 34°36' E 135°21'713.7
2018-Jul-11 02:00N 34°35' E 135°13'714.4
2018-Jul-11 01:30N 34°35' E 135°04'913.9
2018-Jul-11 00:51N 34°34' E 134°53'514.6
2018-Jul-11 00:30N 34°32' E 134°48'1013.9
2018-Jul-10 23:45N 34°28' E 134°36'413.8
2018-Jul-10 23:29N 34°27' E 134°32'9 0.3
2018-Jul-09 11:32N 34°25' E 134°21'014.2
2018-Jul-09 11:30N 34°25' E 134°21'714.2
2018-Jul-09 11:00N 34°28' E 134°29'714.0
2018-Jul-09 10:30N 34°31' E 134°37'1115.3
2018-Jul-09 09:48N 34°34' E 134°49'716.5
2018-Jul-09 09:23N 34°37' E 134°57'615.0
2018-Jul-09 09:00N 34°36' E 135°04'714.1
2018-Jul-09 08:30N 34°36' E 135°13'713.5
2018-Jul-09 08:00N 34°36' E 135°21'510.5
2018-Jul-09 07:30N 34°35' E 135°27'0 0.0
2018-Jul-09 03:51N 34°34' E 135°27'0 0.0
2018-Jul-09 03:27N 34°34' E 135°27'0 0.0
2018-Jul-09 02:27N 34°34' E 135°27'0 0.0
2018-Jul-09 01:51N 34°34' E 135°27'0 0.0
2018-Jul-09 01:27N 34°34' E 135°27'  
Track history (hours):
 
Tides and Currents Weather Stations Pressure Air Temp Water Temp Dewpoint Dewpoint Depression Visibility Wind Speed Wind Dir Waves Ship Positions

Sensho

Last reported at 2018-Jul-18 22:00 UTC. Time now 2018-Jul-18 22:08 UTC.
Position N 34°35' E 134°54'.

Length 81 m; draft 4 m.

Type: Cargo ship. MMSI: 431100886.

Date/timePositionNaut miles runAvg speedWind from/ knotsBaromVisibWave heightAir tempDewpointWater temp
2018-Jul-18 22:00N 34°35' E 134°54'815.7
2018-Jul-18 21:30N 34°31' E 134°45'814.3
2018-Jul-18 20:58N 34°28' E 134°37'714.3
2018-Jul-18 20:29N 34°26' E 134°29'13 0.4
2018-Jul-17 12:10N 34°24' E 134°14'315.4
2018-Jul-17 11:57N 34°24' E 134°17'614.4
2018-Jul-17 11:30N 34°26' E 134°25'714.0
2018-Jul-17 11:00N 34°29' E 134°33'713.6
2018-Jul-17 10:30N 34°31' E 134°41'1812.8
2018-Jul-17 09:06N 34°37' E 135°01'1 9.8
2018-Jul-17 09:00N 34°37' E 135°02'510.1
2018-Jul-17 08:30N 34°36' E 135°08'713.5
2018-Jul-17 08:01N 34°36' E 135°16'713.4
2018-Jul-17 07:30N 34°36' E 135°24'3 5.1
2018-Jul-17 06:58N 34°34' E 135°27'0 0.0
2018-Jul-17 06:26N 34°34' E 135°27'0 0.0
2018-Jul-17 05:50N 34°34' E 135°27'0 0.0
2018-Jul-17 05:14N 34°34' E 135°27'0 0.0
2018-Jul-17 02:50N 34°34' E 135°27'0 0.0
2018-Jul-17 02:29N 34°34' E 135°27'0 0.0
2018-Jul-17 01:59N 34°34' E 135°27'0 0.0
2018-Jul-17 01:17N 34°34' E 135°27'0 0.0
2018-Jul-17 00:59N 34°34' E 135°27'0 0.0
2018-Jul-17 00:29N 34°34' E 135°27'1 0.7
2018-Jul-16 23:28N 34°35' E 135°27'511.2
2018-Jul-16 22:59N 34°36' E 135°20'613.1
2018-Jul-16 22:30N 34°35' E 135°13'714.7
2018-Jul-16 22:00N 34°35' E 135°04'713.3
2018-Jul-16 21:28N 34°35' E 134°55'714.6
2018-Jul-16 21:00N 34°32' E 134°48'714.1
2018-Jul-16 20:29N 34°29' E 134°40'714.2
2018-Jul-16 19:58N 34°26' E 134°32'1 2.4
2018-Jul-16 19:30N 34°25' E 134°31'29 0.9
2018-Jul-15 09:36N 34°25' E 133°56'315.2
2018-Jul-15 09:23N 34°25' E 133°60'1113.2
2018-Jul-15 08:35N 34°25' E 134°13'413.1
2018-Jul-15 08:17N 34°25' E 134°17'413.7
2018-Jul-15 08:00N 34°26' E 134°22'713.9
2018-Jul-15 07:30N 34°28' E 134°30'713.6
2018-Jul-15 07:00N 34°31' E 134°37'713.5
2018-Jul-15 06:29N 34°33' E 134°45'911.9
2018-Jul-15 05:42N 34°37' E 134°56'310.5
2018-Jul-15 05:24N 34°37' E 134°59'4 9.6
2018-Jul-15 05:01N 34°36' E 135°04'612.7
2018-Jul-15 04:30N 34°36' E 135°11'714.1
2018-Jul-15 04:00N 34°37' E 135°20'612.1
2018-Jul-15 03:30N 34°35' E 135°27'0 0.3
2018-Jul-15 03:00N 34°34' E 135°27'0 0.0
2018-Jul-15 02:30N 34°34' E 135°27'0 0.0
2018-Jul-15 00:39N 34°34' E 135°27'0 0.0
2018-Jul-15 00:27N 34°34' E 135°27'0 0.0
2018-Jul-14 23:57N 34°34' E 135°27'0 0.0
2018-Jul-14 23:21N 34°34' E 135°27'0 0.0
2018-Jul-14 22:51N 34°34' E 135°27'0 0.0
2018-Jul-14 08:15N 34°34' E 135°27'0 0.0
2018-Jul-14 07:51N 34°34' E 135°27'0 0.0
2018-Jul-14 07:27N 34°34' E 135°27'0 0.0
2018-Jul-14 06:45N 34°34' E 135°27'0 0.0
2018-Jul-14 06:21N 34°34' E 135°27'0 0.0
2018-Jul-14 01:09N 34°34' E 135°27'0 0.0
2018-Jul-13 23:45N 34°34' E 135°27'0 0.0
2018-Jul-13 23:15N 34°34' E 135°27'0 0.0
2018-Jul-13 22:45N 34°34' E 135°27'0 0.0
2018-Jul-13 22:15N 34°34' E 135°27'0 0.0
2018-Jul-13 17:33N 34°34' E 135°27'0 0.0
2018-Jul-13 17:15N 34°34' E 135°27'0 0.0
2018-Jul-13 16:51N 34°34' E 135°27'0 0.0
2018-Jul-13 16:15N 34°34' E 135°27'0 0.0
2018-Jul-13 15:57N 34°34' E 135°27'0 0.0
2018-Jul-13 15:15N 34°34' E 135°27'0 0.0
2018-Jul-13 11:51N 34°34' E 135°27'0 0.0
2018-Jul-13 09:09N 34°34' E 135°27'0 0.0
2018-Jul-13 08:39N 34°34' E 135°27'0 0.0
2018-Jul-13 08:27N 34°34' E 135°27'0 0.0
2018-Jul-13 07:39N 34°34' E 135°27'0 0.0
2018-Jul-13 07:09N 34°34' E 135°27'0 0.0
2018-Jul-13 06:51N 34°34' E 135°27'0 0.0
2018-Jul-13 06:27N 34°34' E 135°27'4 8.7
2018-Jul-13 06:01N 34°36' E 135°23'713.8
2018-Jul-13 05:30N 34°35' E 135°15'714.6
2018-Jul-13 05:01N 34°34' E 135°06'916.3
2018-Jul-13 04:26N 34°35' E 134°55'716.5
2018-Jul-13 04:00N 34°32' E 134°47'1114.5
2018-Jul-13 03:17N 34°29' E 134°35'414.3
2018-Jul-13 03:00N 34°27' E 134°31'10 0.3
2018-Jul-11 14:20N 34°25' E 134°19'514.3
2018-Jul-11 13:58N 34°27' E 134°25'714.6
2018-Jul-11 13:30N 34°30' E 134°33'714.5
2018-Jul-11 13:01N 34°32' E 134°41'915.9
2018-Jul-11 12:26N 34°35' E 134°51'715.9
2018-Jul-11 12:00N 34°38' E 134°59'714.7
2018-Jul-11 11:30N 34°36' E 135°08'714.5
2018-Jul-11 11:00N 34°36' E 135°17'713.6
2018-Jul-11 10:30N 34°36' E 135°25'2 4.3
2018-Jul-11 10:00N 34°34' E 135°27'0 0.0
2018-Jul-11 09:22N 34°34' E 135°27'0 0.0
2018-Jul-11 05:10N 34°34' E 135°27'0 0.0
2018-Jul-11 04:45N 34°34' E 135°27'0 0.0
2018-Jul-11 03:16N 34°34' E 135°27'0 0.1
2018-Jul-11 03:00N 34°34' E 135°27'510.7
2018-Jul-11 02:30N 34°36' E 135°21'713.7
2018-Jul-11 02:00N 34°35' E 135°13'714.4
2018-Jul-11 01:30N 34°35' E 135°04'913.9
2018-Jul-11 00:51N 34°34' E 134°53'514.6
2018-Jul-11 00:30N 34°32' E 134°48'1013.9
2018-Jul-10 23:45N 34°28' E 134°36'413.8
2018-Jul-10 23:29N 34°27' E 134°32'9 0.3
2018-Jul-09 11:32N 34°25' E 134°21'014.2
2018-Jul-09 11:30N 34°25' E 134°21'714.2
2018-Jul-09 11:00N 34°28' E 134°29'714.0
2018-Jul-09 10:30N 34°31' E 134°37'1115.3
2018-Jul-09 09:48N 34°34' E 134°49'716.5
2018-Jul-09 09:23N 34°37' E 134°57'615.0
2018-Jul-09 09:00N 34°36' E 135°04'714.1
2018-Jul-09 08:30N 34°36' E 135°13'713.5
2018-Jul-09 08:00N 34°36' E 135°21'510.5
2018-Jul-09 07:30N 34°35' E 135°27'0 0.0
2018-Jul-09 03:51N 34°34' E 135°27'0 0.0
2018-Jul-09 03:27N 34°34' E 135°27'0 0.0
2018-Jul-09 02:27N 34°34' E 135°27'0 0.0
2018-Jul-09 01:51N 34°34' E 135°27'0 0.0
2018-Jul-09 01:27N 34°34' E 135°27'  

Dump ship's entire track history